Time;durP1;ratioP1;P1;durP2;ratioP2;P2;SDS_P1;SDS_P2;PMS_P1;PMS_P2;Temp;Humidity;BMP_temperature;BMP_pressure;BME280_temperature;BME280_humidity;BME280_pressure;Samples;Min_cycle;Max_cycle;Signal;HPM_P1;HPM_P2
2023/12/23 00:00:11;;;;;;;5.40;0.50;;;7.60;99.90;;;;;;5083624;28;20055;-78
2023/12/23 00:02:37;;;;;;;15.38;0.85;;;7.60;99.90;;;;;;5084947;28;20051;-78
2023/12/23 00:05:02;;;;;;;18.83;1.63;;;7.60;99.90;;;;;;5084432;28;20028;-79
2023/12/23 00:07:28;;;;;;;9.02;0.00;;;7.60;99.90;;;;;;5083914;28;20449;-78
2023/12/23 00:09:54;;;;;;;4.82;0.10;;;7.60;99.90;;;;;;5081477;28;20055;-78
2023/12/23 00:12:19;;;;;;;6.28;0.73;;;7.60;99.90;;;;;;5061085;28;20078;-77
2023/12/23 00:14:45;;;;;;;6.07;0.40;;;7.70;99.90;;;;;;5066063;28;20035;-78
2023/12/23 00:17:10;;;;;;;6.43;0.45;;;7.70;99.90;;;;;;5061475;28;20387;-78
2023/12/23 00:19:36;;;;;;;7.30;0.28;;;7.60;99.90;;;;;;5080491;28;20073;-78
2023/12/23 00:22:02;;;;;;;10.70;0.17;;;7.60;99.90;;;;;;5078359;28;20056;-78
2023/12/23 00:24:29;;;;;;;13.98;0.25;;;7.60;99.90;;;;;;5065932;28;20390;-78
2023/12/23 00:26:57;;;;;;;10.55;0.20;;;7.50;99.90;;;;;;5066684;28;20031;-78
2023/12/23 00:29:24;;;;;;;4.95;0.25;;;7.50;99.90;;;;;;5067066;28;20028;-78
2023/12/23 00:31:50;;;;;;;11.25;0.10;;;7.50;99.90;;;;;;5067917;28;20043;-79
2023/12/23 00:34:15;;;;;;;6.93;0.43;;;7.50;99.90;;;;;;5086003;28;20029;-80
2023/12/23 00:36:41;;;;;;;7.35;0.10;;;7.50;99.90;;;;;;5084358;28;20029;-78
2023/12/23 00:39:07;;;;;;;10.40;0.95;;;7.50;99.90;;;;;;5083283;28;20468;-77
2023/12/23 00:41:32;;;;;;;8.93;0.65;;;7.50;99.90;;;;;;5058456;28;20027;-77
2023/12/23 00:43:58;;;;;;;7.55;0.22;;;7.50;99.90;;;;;;5058818;28;20030;-78
2023/12/23 00:46:24;;;;;;;13.73;1.02;;;;;;;;;;5062315;28;20073;-77
2023/12/23 00:48:50;;;;;;;10.38;0.98;;;7.50;99.90;;;;;;5077708;28;20020;-78
2023/12/23 00:51:15;;;;;;;15.85;0.85;;;7.50;99.90;;;;;;5058212;28;20028;-77
2023/12/23 00:53:41;;;;;;;6.53;0.10;;;;;;;;;;5080334;28;20027;-78
2023/12/23 00:56:07;;;;;;;11.55;0.75;;;7.50;99.90;;;;;;5077681;28;20060;-78
2023/12/23 00:58:32;;;;;;;7.78;0.98;;;7.60;99.90;;;;;;5077174;28;20024;-77
2023/12/23 01:00:58;;;;;;;12.43;1.58;;;7.60;99.90;;;;;;5077054;28;20059;-77
2023/12/23 01:03:24;;;;;;;8.30;0.10;;;;;;;;;;5076593;28;20112;-77
2023/12/23 01:05:50;;;;;;;11.82;0.60;;;7.60;99.90;;;;;;5075708;28;20055;-78
2023/12/23 01:08:15;;;;;;;7.97;0.10;;;7.60;99.90;;;;;;5075984;28;20492;-78
2023/12/23 01:10:41;;;;;;;10.93;0.40;;;7.60;99.90;;;;;;5077089;28;20024;-77
2023/12/23 01:13:07;;;;;;;7.28;0.10;;;7.50;99.90;;;;;;5075587;28;20527;-77
2023/12/23 01:15:32;;;;;;;4.97;0.15;;;7.50;99.90;;;;;;5075341;28;20070;-77
2023/12/23 01:17:58;;;;;;;5.28;0.20;;;7.50;99.90;;;;;;5076334;28;20029;-77
2023/12/23 01:20:24;;;;;;;7.10;0.00;;;7.50;99.90;;;;;;5076406;28;20016;-77
2023/12/23 01:22:49;;;;;;;6.63;0.17;;;7.50;99.90;;;;;;5075507;28;20028;-78
2023/12/23 01:25:15;;;;;;;7.47;0.10;;;7.50;99.90;;;;;;5075025;28;20017;-77
2023/12/23 01:27:41;;;;;;;3.50;0.10;;;7.40;99.90;;;;;;5057666;28;20033;-77
2023/12/23 01:30:07;;;;;;;10.98;1.10;;;7.40;99.90;;;;;;5075416;28;20519;-77
2023/12/23 01:32:33;;;;;;;3.95;0.40;;;7.40;99.90;;;;;;5058086;28;20025;-78
2023/12/23 01:34:59;;;;;;;2.05;0.13;;;;;;;;;;5057435;28;20040;-77
2023/12/23 01:37:24;;;;;;;4.05;0.00;;;7.40;99.90;;;;;;5057648;28;20555;-77
2023/12/23 01:39:50;;;;;;;8.07;0.30;;;7.40;99.90;;;;;;5075797;28;20048;-77
2023/12/23 01:42:15;;;;;;;2.72;0.20;;;7.50;99.90;;;;;;5074965;28;20059;-78
2023/12/23 01:44:42;;;;;;;6.05;0.20;;;7.50;99.90;;;;;;5057076;28;20099;-77
2023/12/23 01:47:07;;;;;;;4.95;0.10;;;7.50;99.90;;;;;;5075160;28;20024;-77
2023/12/23 01:49:34;;;;;;;5.35;0.20;;;7.40;99.90;;;;;;5074914;28;20124;-78
2023/12/23 01:52:01;;;;;;;3.53;0.40;;;7.50;99.90;;;;;;5075380;28;20091;-77
2023/12/23 01:54:28;;;;;;;5.75;0.22;;;7.50;99.90;;;;;;5075675;28;20030;-77
2023/12/23 01:56:54;;;;;;;4.90;0.17;;;7.60;99.90;;;;;;5075055;28;20036;-77
2023/12/23 01:59:20;;;;;;;5.13;0.28;;;7.50;99.90;;;;;;5057347;28;20020;-77
2023/12/23 02:01:46;;;;;;;10.40;0.93;;;7.50;99.90;;;;;;5057317;28;20070;-77
2023/12/23 02:04:12;;;;;;;4.35;0.00;;;7.50;99.90;;;;;;5057060;28;20082;-78
2023/12/23 02:06:38;;;;;;;3.75;0.20;;;7.50;99.90;;;;;;5075570;28;20021;-78
2023/12/23 02:09:04;;;;;;;4.25;0.30;;;7.50;99.90;;;;;;5057093;28;20043;-77
2023/12/23 02:12:15;;;;;;;4.88;0.00;;;7.60;99.90;;;;;;5075185;28;20495;-77
2023/12/23 02:14:50;;;;;;;7.47;0.30;;;7.70;99.90;;;;;;5020695;28;20044;-78
2023/12/23 02:17:15;;;;;;;3.13;0.32;;;7.70;99.90;;;;;;5079071;28;20024;-79
2023/12/23 02:19:41;;;;;;;3.15;0.10;;;7.80;99.90;;;;;;5084821;28;20094;-77
2023/12/23 02:22:07;;;;;;;2.00;0.00;;;7.90;99.90;;;;;;5080429;28;20024;-78
2023/12/23 02:24:32;;;;;;;0.85;0.15;;;7.90;99.90;;;;;;5060015;28;20020;-78
2023/12/23 02:27:10;;;;;;;0.90;0.00;;;7.90;99.90;;;;;;5075950;28;20031;-75
2023/12/23 02:29:38;;;;;;;3.28;0.03;;;8.00;99.90;;;;;;5073905;28;20402;-76
2023/12/23 02:32:06;;;;;;;2.70;0.00;;;7.90;99.90;;;;;;5074533;28;20020;-76
2023/12/23 02:34:33;;;;;;;2.25;0.20;;;7.90;99.90;;;;;;5073544;28;20035;-75
2023/12/23 02:36:58;;;;;;;8.55;1.02;;;8.00;99.90;;;;;;5054892;28;20131;-75
2023/12/23 02:39:24;;;;;;;2.20;0.22;;;8.00;99.90;;;;;;5074047;28;20495;-75
2023/12/23 02:41:49;;;;;;;6.07;0.40;;;8.50;99.90;;;;;;5055755;28;20055;-76
2023/12/23 02:44:15;;;;;;;6.05;0.20;;;8.20;99.90;;;;;;5055568;28;20036;-75
2023/12/23 02:46:40;;;;;;;4.18;0.20;;;8.20;99.90;;;;;;5073890;28;20024;-77
2023/12/23 02:49:06;;;;;;;11.57;0.77;;;8.30;99.90;;;;;;5074166;28;20035;-76
2023/12/23 02:51:31;;;;;;;7.05;0.03;;;8.40;99.90;;;;;;5055967;28;20016;-75
2023/12/23 02:53:57;;;;;;;5.05;0.82;;;8.40;99.90;;;;;;5055791;28;20025;-76
2023/12/23 02:56:22;;;;;;;9.95;0.73;;;8.50;99.90;;;;;;5055725;28;20078;-75
2023/12/23 02:58:48;;;;;;;8.98;0.20;;;8.50;99.90;;;;;;5073815;28;20020;-75
2023/12/23 03:01:13;;;;;;;4.38;0.55;;;8.50;99.90;;;;;;5074795;28;20095;-74
2023/12/23 03:03:39;;;;;;;7.88;0.70;;;8.60;99.90;;;;;;5056774;28;20059;-75
2023/12/23 03:06:05;;;;;;;3.92;0.35;;;8.60;99.90;;;;;;5056124;28;20025;-76
2023/12/23 03:08:30;;;;;;;9.02;0.45;;;8.70;99.90;;;;;;5055742;28;20024;-75
2023/12/23 03:10:56;;;;;;;7.15;0.63;;;9.70;99.90;;;;;;5055947;28;20364;-75
2023/12/23 03:13:22;;;;;;;12.50;0.43;;;8.70;99.90;;;;;;5073679;28;20033;-75
2023/12/23 03:15:47;;;;;;;8.88;0.65;;;8.80;99.90;;;;;;5055566;28;20020;-75
2023/12/23 03:18:13;;;;;;;7.32;0.20;;;9.30;99.90;;;;;;5073299;28;20025;-76
2023/12/23 03:20:38;;;;;;;8.48;0.40;;;8.90;99.90;;;;;;5074022;28;20020;-74
2023/12/23 03:23:04;;;;;;;7.00;0.70;;;8.90;99.90;;;;;;5055732;28;20016;-74
2023/12/23 03:25:29;;;;;;;5.07;0.47;;;9.00;99.90;;;;;;5073796;28;20028;-75
2023/12/23 03:27:55;;;;;;;8.45;0.95;;;9.00;99.90;;;;;;5073600;28;20479;-76
2023/12/23 03:30:21;;;;;;;9.07;0.45;;;9.00;99.90;;;;;;5073652;28;20471;-75
2023/12/23 03:32:46;;;;;;;10.02;0.85;;;9.00;99.90;;;;;;5055794;28;20475;-75
2023/12/23 03:35:12;;;;;;;5.70;0.65;;;9.10;99.90;;;;;;5055656;28;20493;-75
2023/12/23 03:37:37;;;;;;;7.70;0.63;;;9.10;99.90;;;;;;5055197;28;20032;-76
2023/12/23 03:40:04;;;;;;;4.68;0.55;;;9.10;99.90;;;;;;5055653;28;20056;-76
2023/12/23 03:42:30;;;;;;;5.07;0.35;;;9.20;99.90;;;;;;5056099;28;20106;-78
2023/12/23 03:44:55;;;;;;;5.53;0.20;;;9.20;99.90;;;;;;5057520;28;20017;-78
2023/12/23 03:47:24;;;;;;;12.63;0.75;;;9.30;99.90;;;;;;5077215;28;20028;-77
2023/12/23 03:49:49;;;;;;;6.28;0.20;;;9.30;99.90;;;;;;5061417;28;20028;-77
2023/12/23 03:52:15;;;;;;;3.90;0.05;;;9.30;99.90;;;;;;5080206;28;20032;-78
2023/12/23 03:54:40;;;;;;;16.20;1.35;;;9.40;99.90;;;;;;5060362;28;20388;-77
2023/12/23 03:57:06;;;;;;;11.57;0.35;;;9.40;99.90;;;;;;5060394;28;20384;-78
2023/12/23 03:59:32;;;;;;;6.40;0.93;;;9.40;99.90;;;;;;5077513;28;20021;-77
2023/12/23 04:01:57;;;;;;;10.35;0.25;;;9.40;99.90;;;;;;5078389;28;20024;-77
2023/12/23 04:04:23;;;;;;;8.10;0.52;;;9.40;99.90;;;;;;5060457;28;20635;-77
2023/12/23 04:06:48;;;;;;;6.72;0.47;;;9.40;99.90;;;;;;5078071;28;20027;-77
2023/12/23 04:09:17;;;;;;;8.43;0.65;;;9.50;99.90;;;;;;5076848;28;20039;-77
2023/12/23 04:11:43;;;;;;;7.03;0.10;;;9.50;99.90;;;;;;5077385;28;20013;-76
2023/12/23 04:14:08;;;;;;;7.70;0.57;;;9.50;99.90;;;;;;5059380;28;20078;-76
2023/12/23 04:16:38;;;;;;;6.13;0.77;;;9.60;99.90;;;;;;5059211;28;20029;-76
2023/12/23 04:19:04;;;;;;;9.15;1.15;;;9.60;99.90;;;;;;5059895;28;20025;-79
2023/12/23 04:21:30;;;;;;;5.15;1.25;;;9.50;99.90;;;;;;5061255;28;20017;-79
2023/12/23 04:23:56;;;;;;;9.43;0.75;;;9.60;99.90;;;;;;5061429;28;20495;-78
2023/12/23 04:26:21;;;;;;;7.78;1.10;;;9.60;99.90;;;;;;5079260;28;20021;-79
2023/12/23 04:28:47;;;;;;;2.63;0.03;;;9.60;99.90;;;;;;5061444;28;20028;-77
2023/12/23 04:31:13;;;;;;;6.03;0.38;;;9.50;99.90;;;;;;5078697;28;20024;-77
2023/12/23 04:33:38;;;;;;;13.50;0.40;;;9.60;99.90;;;;;;5077245;28;20578;-77
2023/12/23 04:36:04;;;;;;;7.03;0.20;;;9.60;99.90;;;;;;5077076;28;20036;-77
2023/12/23 04:38:30;;;;;;;7.20;0.10;;;9.60;99.90;;;;;;5078021;28;20028;-77
2023/12/23 04:40:56;;;;;;;3.65;0.10;;;9.60;99.90;;;;;;5059468;28;20028;-77
2023/12/23 04:43:21;;;;;;;5.90;0.60;;;9.60;99.90;;;;;;5077708;28;20510;-77
2023/12/23 04:45:47;;;;;;;6.40;0.32;;;12.00;99.90;;;;;;5059267;28;20099;-77
2023/12/23 04:48:12;;;;;;;5.13;0.47;;;9.60;99.90;;;;;;5078760;28;20016;-77
2023/12/23 04:50:38;;;;;;;7.03;0.47;;;9.70;99.90;;;;;;5059230;28;20048;-77
2023/12/23 04:53:04;;;;;;;3.80;0.90;;;9.70;99.90;;;;;;5076463;28;20039;-77
2023/12/23 04:55:29;;;;;;;7.05;0.25;;;9.70;99.90;;;;;;5076982;28;20021;-79
2023/12/23 04:57:55;;;;;;;4.13;0.10;;;9.70;99.90;;;;;;5060508;28;20025;-79
2023/12/23 05:00:20;;;;;;;10.00;1.23;;;9.70;99.90;;;;;;5077213;28;20057;-79
2023/12/23 05:02:46;;;;;;;5.15;0.32;;;9.60;99.90;;;;;;5060212;28;20016;-78
2023/12/23 05:05:11;;;;;;;7.88;0.57;;;9.70;99.90;;;;;;5077468;28;20055;-79
2023/12/23 05:07:37;;;;;;;5.05;0.28;;;9.70;99.90;;;;;;5059319;28;20037;-79
2023/12/23 05:10:03;;;;;;;8.77;0.75;;;9.70;99.90;;;;;;5059297;28;20031;-79
2023/12/23 05:12:28;;;;;;;8.90;1.45;;;9.80;99.90;;;;;;5076162;28;20036;-78
2023/12/23 05:14:54;;;;;;;2.95;0.63;;;9.70;99.90;;;;;;5059735;28;20360;-78
2023/12/23 05:17:20;;;;;;;3.35;0.57;;;9.70;99.90;;;;;;5058580;28;20483;-78
2023/12/23 05:19:47;;;;;;;5.57;0.10;;;9.70;99.90;;;;;;5076623;28;20479;-77
2023/12/23 05:22:13;;;;;;;7.97;0.28;;;9.80;99.90;;;;;;5076219;28;20494;-78
2023/12/23 05:24:39;;;;;;;5.70;0.65;;;9.80;99.90;;;;;;5079120;28;20020;-79
2023/12/23 05:27:05;;;;;;;9.45;0.25;;;9.80;99.90;;;;;;5079626;28;20526;-79
2023/12/23 05:29:31;;;;;;;5.30;0.52;;;9.70;99.90;;;;;;5061613;28;20487;-79
2023/12/23 05:31:57;;;;;;;14.95;0.45;;;9.70;99.90;;;;;;5079149;28;20032;-79
2023/12/23 05:34:22;;;;;;;5.28;0.10;;;9.70;99.90;;;;;;5060430;28;20027;-79
2023/12/23 05:36:48;;;;;;;5.35;0.40;;;9.70;99.90;;;;;;5057960;28;20116;-78
2023/12/23 05:39:14;;;;;;;3.90;0.35;;;9.70;99.90;;;;;;5076097;28;20040;-79
2023/12/23 05:41:40;;;;;;;9.60;0.38;;;9.70;99.90;;;;;;5060938;28;20353;-78
2023/12/23 05:44:07;;;;;;;4.43;1.45;;;9.70;99.90;;;;;;5077541;28;20108;-80
2023/12/23 05:46:33;;;;;;;6.60;0.25;;;9.70;99.90;;;;;;5075870;28;20131;-79
2023/12/23 05:48:58;;;;;;;18.13;0.93;;;9.70;99.90;;;;;;5075021;28;20064;-78
2023/12/23 05:51:24;;;;;;;12.15;0.45;;;9.70;99.90;;;;;;5076657;28;20036;-79
2023/12/23 05:53:50;;;;;;;11.40;0.45;;;9.70;99.90;;;;;;5076547;28;20016;-79
2023/12/23 05:56:15;;;;;;;3.22;0.10;;;9.60;99.90;;;;;;5075721;28;20082;-78
2023/12/23 05:58:41;;;;;;;6.78;0.20;;;9.60;99.90;;;;;;5075690;28;20051;-78
2023/12/23 06:01:06;;;;;;;11.75;0.22;;;9.60;99.90;;;;;;5059321;28;20029;-79
2023/12/23 06:03:32;;;;;;;6.30;0.40;;;9.60;99.90;;;;;;5057696;28;20020;-78
2023/12/23 06:05:58;;;;;;;9.05;1.00;;;9.60;99.90;;;;;;5075918;28;20032;-79
2023/12/23 06:08:23;;;;;;;5.43;0.22;;;9.60;99.90;;;;;;5057861;28;20025;-79
2023/12/23 06:10:49;;;;;;;9.77;0.70;;;9.60;99.90;;;;;;5076621;28;20013;-79
2023/12/23 06:13:14;;;;;;;8.52;0.43;;;9.60;99.90;;;;;;5058109;28;20492;-75
2023/12/23 06:15:40;;;;;;;13.38;1.08;;;9.60;99.90;;;;;;5074299;28;20025;-75
2023/12/23 06:18:06;;;;;;;9.23;0.52;;;9.60;99.90;;;;;;5056119;28;20028;-75
2023/12/23 06:20:31;;;;;;;14.50;1.55;;;9.60;99.90;;;;;;5056093;28;20032;-75
2023/12/23 06:22:57;;;;;;;9.95;1.20;;;9.60;99.90;;;;;;5073846;28;20036;-74
2023/12/23 06:25:23;;;;;;;11.75;0.45;;;9.60;99.90;;;;;;5056332;28;20052;-76
2023/12/23 06:27:49;;;;;;;4.93;0.30;;;9.50;99.90;;;;;;5055940;28;20054;-75
2023/12/23 06:30:15;;;;;;;6.28;0.55;;;9.60;99.90;;;;;;5073795;28;20029;-76
2023/12/23 06:32:40;;;;;;;16.35;0.45;;;9.60;99.90;;;;;;5074241;28;20071;-76
2023/12/23 06:35:06;;;;;;;12.13;0.93;;;9.60;99.90;;;;;;5073743;28;20029;-75
2023/12/23 06:37:32;;;;;;;10.45;0.40;;;9.60;99.90;;;;;;5073455;28;20437;-76
2023/12/23 06:39:59;;;;;;;8.27;0.25;;;9.60;99.90;;;;;;5056071;28;20027;-75
2023/12/23 06:42:25;;;;;;;10.18;0.80;;;9.70;99.90;;;;;;5055529;28;20056;-75
2023/12/23 06:44:51;;;;;;;11.55;0.43;;;9.70;99.90;;;;;;5073712;28;20427;-75
2023/12/23 06:47:16;;;;;;;5.63;0.15;;;10.00;99.90;;;;;;5055738;28;20052;-77
2023/12/23 06:49:42;;;;;;;4.82;0.38;;;9.70;99.90;;;;;;5075628;28;20471;-77
2023/12/23 06:52:08;;;;;;;4.57;0.20;;;;;;;;;;5057128;28;20035;-76
2023/12/23 06:54:33;;;;;;;7.78;0.40;;;9.80;99.90;;;;;;5075574;28;20032;-77
2023/12/23 06:56:59;;;;;;;8.07;0.60;;;9.80;99.90;;;;;;5076484;28;20046;-77
2023/12/23 06:59:24;;;;;;;8.38;0.98;;;9.80;99.90;;;;;;5073969;28;20051;-77
2023/12/23 07:01:50;;;;;;;3.80;0.10;;;9.80;99.90;;;;;;5057760;28;20021;-77
2023/12/23 07:04:15;;;;;;;6.78;0.68;;;9.80;99.90;;;;;;5058632;28;20029;-78
2023/12/23 07:06:41;;;;;;;6.68;0.63;;;10.50;99.90;;;;;;5057065;28;20498;-77
2023/12/23 07:09:07;;;;;;;4.60;0.22;;;9.90;99.90;;;;;;5057246;28;20025;-77
2023/12/23 07:11:32;;;;;;;16.55;0.40;;;9.90;99.90;;;;;;5074758;28;20024;-78
2023/12/23 07:13:59;;;;;;;5.93;0.30;;;9.90;99.90;;;;;;5075396;28;20103;-78
2023/12/23 07:16:24;;;;;;;8.77;0.90;;;9.90;99.90;;;;;;5073245;28;20441;-78
2023/12/23 07:18:50;;;;;;;8.52;0.52;;;9.90;99.90;;;;;;5073808;28;20021;-78
2023/12/23 07:21:15;;;;;;;7.43;0.30;;;9.90;99.90;;;;;;5056251;28;20013;-77
2023/12/23 07:23:41;;;;;;;18.70;1.38;;;10.00;99.90;;;;;;5075860;28;20027;-77
2023/12/23 07:26:11;;;;;;;17.27;1.55;;;10.00;99.90;;;;;;5078878;28;20031;-77
2023/12/23 07:28:37;;;;;;;5.03;0.10;;;10.00;99.90;;;;;;5078999;28;20046;-77
2023/12/23 07:31:03;;;;;;;4.65;0.20;;;10.00;99.90;;;;;;5060099;28;20107;-77
2023/12/23 07:33:28;;;;;;;6.65;0.10;;;10.00;99.90;;;;;;5078031;28;20016;-77
2023/12/23 07:35:54;;;;;;;7.53;0.20;;;10.00;99.90;;;;;;5060074;28;20029;-77
2023/12/23 07:38:21;;;;;;;9.93;1.20;;;11.40;99.90;;;;;;5059887;28;20476;-77
2023/12/23 07:40:46;;;;;;;6.07;0.20;;;10.00;99.90;;;;;;5078113;28;20024;-76
2023/12/23 07:43:12;;;;;;;9.85;1.02;;;10.00;99.90;;;;;;5077524;28;20078;-77
2023/12/23 07:45:38;;;;;;;18.05;1.38;;;10.00;99.90;;;;;;5059744;28;20047;-77
2023/12/23 07:48:04;;;;;;;11.02;0.10;;;10.00;99.90;;;;;;5059599;28;20024;-77
2023/12/23 07:50:30;;;;;;;11.18;0.52;;;10.00;99.90;;;;;;5078134;28;20039;-79
2023/12/23 07:52:55;;;;;;;9.15;0.32;;;10.90;99.90;;;;;;5059796;28;20024;-78
2023/12/23 07:55:21;;;;;;;4.30;0.43;;;10.00;99.90;;;;;;5058847;28;20129;-78
2023/12/23 07:57:46;;;;;;;2.75;0.10;;;10.10;99.90;;;;;;5059628;28;20404;-78
2023/12/23 08:00:13;;;;;;;5.68;0.40;;;10.00;99.90;;;;;;5077092;28;20055;-77
2023/12/23 08:02:39;;;;;;;12.32;0.82;;;10.10;99.90;;;;;;5060776;28;20024;-78
2023/12/23 08:05:05;;;;;;;5.00;0.77;;;10.10;99.90;;;;;;5059253;28;20033;-77
2023/12/23 08:07:31;;;;;;;7.05;0.50;;;10.10;99.90;;;;;;5078216;28;20032;-77
2023/12/23 08:09:56;;;;;;;8.07;0.77;;;10.10;99.90;;;;;;5077820;28;20023;-77
2023/12/23 08:12:22;;;;;;;5.95;0.30;;;10.10;99.90;;;;;;5059539;28;20020;-77
2023/12/23 08:14:48;;;;;;;12.90;1.77;;;10.10;99.90;;;;;;5059688;28;20021;-77
2023/12/23 08:17:13;;;;;;;7.38;0.20;;;10.10;99.90;;;;;;5060699;28;20086;-77
2023/12/23 08:19:39;;;;;;;9.93;0.20;;;10.10;99.90;;;;;;5079268;28;20025;-78
2023/12/23 08:22:05;;;;;;;8.95;0.43;;;10.10;99.90;;;;;;5080998;28;20391;-79
2023/12/23 08:24:31;;;;;;;3.58;0.40;;;10.20;99.90;;;;;;5080671;28;20104;-78
2023/12/23 08:26:56;;;;;;;10.13;0.20;;;10.20;99.90;;;;;;5063186;28;20059;-79
2023/12/23 08:29:24;;;;;;;11.07;0.30;;;10.20;99.90;;;;;;5061057;28;20023;-79
2023/12/23 08:31:52;;;;;;;9.45;0.30;;;10.20;99.90;;;;;;5061263;28;20031;-78
2023/12/23 08:34:19;;;;;;;7.70;0.20;;;10.20;99.90;;;;;;5059873;28;20373;-79
2023/12/23 08:36:44;;;;;;;15.98;0.57;;;10.20;99.90;;;;;;5058678;28;20089;-79
2023/12/23 08:39:10;;;;;;;4.75;0.00;;;10.10;99.90;;;;;;5078576;28;20095;-79
2023/12/23 08:41:36;;;;;;;4.85;0.15;;;10.10;99.90;;;;;;5060693;28;20112;-79
2023/12/23 08:44:02;;;;;;;3.85;0.75;;;10.20;99.90;;;;;;5060572;28;20035;-79
2023/12/23 08:46:28;;;;;;;7.53;0.90;;;10.20;99.90;;;;;;5060465;28;20024;-79
2023/12/23 08:48:54;;;;;;;4.22;0.43;;;10.20;99.90;;;;;;5079098;28;20082;-79
2023/12/23 08:51:20;;;;;;;3.97;0.00;;;10.20;99.90;;;;;;5060618;28;20020;-79
2023/12/23 08:53:46;;;;;;;2.30;0.50;;;10.20;99.90;;;;;;5062614;28;20021;-80
2023/12/23 08:56:11;;;;;;;5.38;0.30;;;10.20;99.90;;;;;;5078808;28;20046;-76
2023/12/23 08:58:37;;;;;;;3.55;0.43;;;10.20;99.90;;;;;;5076126;28;20029;-75
2023/12/23 09:01:02;;;;;;;6.28;0.22;;;10.20;99.90;;;;;;5076691;28;20472;-75
2023/12/23 09:03:30;;;;;;;3.70;0.00;;;10.20;99.90;;;;;;5075859;28;20533;-75
2023/12/23 09:05:57;;;;;;;4.05;0.05;;;10.20;99.90;;;;;;5058766;28;20079;-74
2023/12/23 09:08:22;;;;;;;10.73;0.73;;;10.20;99.90;;;;;;5076051;28;20025;-74
2023/12/23 09:10:48;;;;;;;2.90;0.30;;;10.20;99.90;;;;;;5057991;28;20016;-75
2023/12/23 09:13:14;;;;;;;4.30;0.52;;;10.20;99.90;;;;;;5058002;28;20024;-75
2023/12/23 09:15:40;;;;;;;5.03;0.20;;;10.20;99.90;;;;;;5079775;28;20056;-76
2023/12/23 09:18:05;;;;;;;3.83;0.47;;;10.20;99.90;;;;;;5059126;28;20036;-76
2023/12/23 09:20:31;;;;;;;5.50;0.30;;;10.90;99.90;;;;;;5060736;28;20084;-79
2023/12/23 09:22:57;;;;;;;6.43;0.13;;;10.20;99.90;;;;;;5063135;28;20048;-79
2023/12/23 09:25:22;;;;;;;10.10;1.02;;;10.20;99.90;;;;;;5081056;28;20024;-79
2023/12/23 09:27:48;;;;;;;6.47;0.73;;;10.20;99.90;;;;;;5060890;28;20048;-78
2023/12/23 09:30:14;;;;;;;6.88;0.30;;;10.20;99.90;;;;;;5080566;28;20111;-80
2023/12/23 09:32:40;;;;;;;12.35;0.35;;;10.30;99.90;;;;;;5063489;28;20032;-79
2023/12/23 09:35:06;;;;;;;7.43;0.68;;;10.30;99.90;;;;;;5081427;28;20476;-80
2023/12/23 09:37:32;;;;;;;6.50;0.30;;;10.30;99.90;;;;;;5081858;28;20032;-80
2023/12/23 09:39:59;;;;;;;12.00;0.28;;;10.30;99.90;;;;;;5080539;28;20020;-79
2023/12/23 09:42:25;;;;;;;10.45;0.85;;;10.20;99.90;;;;;;5057785;28;20406;-75
2023/12/23 09:44:50;;;;;;;4.95;0.20;;;10.30;99.90;;;;;;5057550;28;20111;-75
2023/12/23 09:47:17;;;;;;;3.67;0.22;;;10.30;99.90;;;;;;5074297;28;20111;-76
2023/12/23 09:49:43;;;;;;;7.40;0.00;;;10.30;99.90;;;;;;5056999;28;20025;-76
2023/12/23 09:52:11;;;;;;;5.20;0.00;;;10.30;99.90;;;;;;5074797;28;20031;-78
2023/12/23 09:54:39;;;;;;;5.93;0.27;;;10.30;99.90;;;;;;5057029;28;20028;-78
2023/12/23 09:57:06;;;;;;;7.60;0.03;;;10.30;99.90;;;;;;5057880;28;20032;-78
2023/12/23 09:59:31;;;;;;;9.60;0.30;;;10.30;99.90;;;;;;5057316;28;20028;-77
2023/12/23 10:01:57;;;;;;;7.70;0.35;;;10.40;99.90;;;;;;5075188;28;20361;-77
2023/12/23 10:04:23;;;;;;;6.30;0.15;;;10.40;99.90;;;;;;5056976;28;20031;-76
2023/12/23 10:06:50;;;;;;;8.23;0.77;;;10.40;99.90;;;;;;5074704;28;20095;-77
2023/12/23 10:09:16;;;;;;;3.40;0.28;;;10.40;99.90;;;;;;5056803;28;20024;-77
2023/12/23 10:11:42;;;;;;;4.20;0.00;;;11.30;99.90;;;;;;5057586;28;20157;-77
2023/12/23 10:14:08;;;;;;;4.78;0.30;;;10.50;99.90;;;;;;5057088;28;20039;-77
2023/12/23 10:16:33;;;;;;;6.43;0.65;;;11.50;99.90;;;;;;5056739;28;20094;-77
2023/12/23 10:18:59;;;;;;;5.53;0.30;;;10.50;99.90;;;;;;5074523;28;20072;-77
2023/12/23 10:21:25;;;;;;;7.97;0.20;;;10.50;99.90;;;;;;5075334;28;20080;-77
2023/12/23 10:23:52;;;;;;;5.57;0.90;;;10.50;99.90;;;;;;5074743;28;20447;-77
2023/12/23 10:26:17;;;;;;;14.63;0.65;;;10.50;99.90;;;;;;5074229;28;20541;-77
2023/12/23 10:28:45;;;;;;;10.65;1.05;;;10.50;99.90;;;;;;5056420;28;20020;-76
2023/12/23 10:31:13;;;;;;;11.27;0.65;;;10.50;99.90;;;;;;5074462;28;20048;-77
2023/12/23 10:33:44;;;;;;;7.20;0.03;;;10.60;99.90;;;;;;5074745;28;20025;-77
2023/12/23 10:36:13;;;;;;;4.25;0.20;;;10.60;99.90;;;;;;5056164;28;20021;-78
2023/12/23 10:38:41;;;;;;;;;;;10.60;99.90;;;;;;5057396;28;20528;-77
2023/12/23 10:41:25;;;;;;;5.68;0.60;;;10.60;99.90;;;;;;5074567;28;19952;-78
2023/12/23 10:43:52;;;;;;;3.55;0.15;;;10.70;99.90;;;;;;5056548;28;20071;-77
2023/12/23 10:46:20;;;;;;;7.78;0.10;;;10.70;99.90;;;;;;5056416;28;20024;-77
2023/12/23 10:48:46;;;;;;;10.25;0.10;;;10.70;99.90;;;;;;5074399;28;20077;-77
2023/12/23 10:51:13;;;;;;;6.68;0.10;;;10.70;99.90;;;;;;5056645;28;20529;-77
2023/12/23 10:53:39;;;;;;;5.95;0.08;;;10.80;99.90;;;;;;5056332;28;20032;-78
2023/12/23 10:56:07;;;;;;;5.47;0.13;;;10.80;99.90;;;;;;5056122;28;20031;-78
2023/12/23 10:58:34;;;;;;;3.75;0.25;;;10.80;99.90;;;;;;5075561;28;20371;-78
2023/12/23 11:01:03;;;;;;;4.90;0.25;;;10.80;99.90;;;;;;5078877;28;20108;-77
2023/12/23 11:03:33;;;;;;;1.38;0.40;;;11.10;99.90;;;;;;5078625;28;20414;-77
2023/12/23 11:06:01;;;;;;;2.42;0.03;;;10.80;99.90;;;;;;5078130;28;20096;-78
2023/12/23 11:08:28;;;;;;;3.33;0.10;;;10.80;99.90;;;;;;5060461;28;20034;-78
2023/12/23 11:10:54;;;;;;;5.15;0.82;;;10.90;99.90;;;;;;5078395;28;20028;-78
2023/12/23 11:13:20;;;;;;;7.28;0.22;;;10.80;99.90;;;;;;5060425;28;20024;-78
2023/12/23 11:15:47;;;;;;;5.72;0.57;;;10.90;99.90;;;;;;5078561;28;20356;-77
2023/12/23 11:18:12;;;;;;;5.28;0.15;;;10.90;99.90;;;;;;5059786;28;20547;-78
2023/12/23 11:20:41;;;;;;;9.98;1.75;;;11.00;99.90;;;;;;5059905;28;20048;-77
2023/12/23 11:23:29;;;;;;;5.72;0.00;;;11.00;99.90;;;;;;5077710;28;20024;-78
2023/12/23 11:25:55;;;;;;;7.13;0.65;;;11.00;99.90;;;;;;5060340;28;20033;-77
2023/12/23 11:28:21;;;;;;;7.88;0.73;;;11.10;99.90;;;;;;5077661;28;20048;-79
2023/12/23 11:30:52;;;;;;;6.22;0.25;;;11.10;99.90;;;;;;5060056;28;20027;-78
2023/12/23 11:33:19;;;;;;;3.08;0.10;;;11.10;99.90;;;;;;5059705;28;20029;-79
2023/12/23 11:35:51;;;;;;;5.60;0.00;;;11.10;99.90;;;;;;5059792;28;20020;-78
2023/12/23 11:38:17;;;;;;;5.55;0.52;;;;;;;;;;5078030;28;20031;-78
2023/12/23 11:40:43;;;;;;;3.08;0.13;;;11.10;99.90;;;;;;5060840;28;20448;-78
2023/12/23 11:43:08;;;;;;;4.78;0.17;;;11.10;99.90;;;;;;5077560;28;20028;-79
2023/12/23 11:45:37;;;;;;;2.65;0.10;;;11.10;99.90;;;;;;5076990;28;20037;-78
2023/12/23 11:48:06;;;;;;;2.92;0.00;;;11.10;99.90;;;;;;5059510;28;20458;-77
2023/12/23 11:50:31;;;;;;;;;;;11.20;99.90;;;;;;5059792;28;20024;-78
2023/12/23 11:52:57;;;;;;;5.93;0.55;;;11.30;99.90;;;;;;5077299;28;20283;-75
2023/12/23 11:55:23;;;;;;;4.93;0.10;;;11.30;99.90;;;;;;5077252;28;20024;-75
2023/12/23 11:57:49;;;;;;;2.67;0.40;;;11.30;99.90;;;;;;5076844;28;20024;-75
2023/12/23 12:00:17;;;;;;;7.15;0.43;;;11.30;99.90;;;;;;5077210;28;20099;-75
2023/12/23 12:02:43;;;;;;;3.67;0.20;;;11.30;99.90;;;;;;5076860;28;20017;-75
2023/12/23 12:05:08;;;;;;;3.40;0.00;;;11.20;99.90;;;;;;5076789;28;20028;-76
2023/12/23 12:07:34;;;;;;;7.93;0.10;;;11.20;99.90;;;;;;5059390;28;20024;-76
2023/12/23 12:10:00;;;;;;;4.57;0.25;;;11.20;99.90;;;;;;5058828;28;20109;-76
2023/12/23 12:12:26;;;;;;;6.22;0.00;;;11.20;99.90;;;;;;5060081;28;20031;-76
2023/12/23 12:14:55;;;;;;;5.82;0.10;;;11.10;99.90;;;;;;5059007;28;20063;-75
2023/12/23 12:17:20;;;;;;;9.27;0.60;;;11.20;99.90;;;;;;5059326;28;20017;-75
2023/12/23 12:19:46;;;;;;;3.95;0.00;;;11.50;99.90;;;;;;5058475;28;20043;-75
2023/12/23 12:22:12;;;;;;;2.38;0.08;;;11.20;99.90;;;;;;5076898;28;20029;-77
2023/12/23 12:24:37;;;;;;;4.95;0.40;;;11.30;99.90;;;;;;5077115;28;20356;-76
2023/12/23 12:27:04;;;;;;;4.93;0.73;;;11.30;99.90;;;;;;5058393;28;20115;-75
2023/12/23 12:29:29;;;;;;;4.30;0.30;;;11.20;99.90;;;;;;5076666;28;20413;-76
2023/12/23 12:31:57;;;;;;;9.40;0.25;;;11.20;99.90;;;;;;5076626;28;20080;-75
2023/12/23 12:34:23;;;;;;;7.75;0.35;;;11.10;99.90;;;;;;5076375;28;20029;-76
2023/12/23 12:36:51;;;;;;;5.20;0.20;;;11.10;99.90;;;;;;5057950;28;20123;-75
2023/12/23 12:39:20;;;;;;;3.45;0.00;;;11.10;99.90;;;;;;5076328;28;20025;-75
2023/12/23 12:41:51;;;;;;;3.22;0.63;;;11.00;99.90;;;;;;5058748;28;20025;-76
2023/12/23 12:44:18;;;;;;;6.25;0.13;;;11.00;99.90;;;;;;5076449;28;20048;-77
2023/12/23 12:46:55;;;;;;;3.67;0.22;;;11.00;99.90;;;;;;5076479;28;20108;-76